createdAt,value
2022-10-02T00:00:46.312Z,1.04
2022-10-02T00:01:46.554Z,1.04
2022-10-02T00:02:46.571Z,1.04
2022-10-02T00:03:46.759Z,1.04
2022-10-02T00:04:46.757Z,1.04
2022-10-02T00:05:46.908Z,1.04
2022-10-02T00:06:47.009Z,1.04
2022-10-02T00:07:47.110Z,1.04
2022-10-02T00:08:47.208Z,1.04
2022-10-02T00:09:47.360Z,1.04
2022-10-02T00:10:47.463Z,1.04
2022-10-02T00:11:47.616Z,1.04
2022-10-02T00:12:47.772Z,1.04
2022-10-02T00:13:47.929Z,1.04
2022-10-02T00:14:48.496Z,1.04
2022-10-02T00:15:48.154Z,1.04
2022-10-02T00:16:48.340Z,1.04
2022-10-02T00:17:48.411Z,1.04
2022-10-02T00:18:48.573Z,1.04
2022-10-02T00:19:48.660Z,1.04
2022-10-02T00:20:48.822Z,1.04
2022-10-02T00:21:48.917Z,1.04
2022-10-02T00:22:49.090Z,1.04
2022-10-02T00:23:49.217Z,1.04
2022-10-02T00:24:49.804Z,1.04
2022-10-02T00:25:49.540Z,1.04
2022-10-02T00:26:49.697Z,1.04
2022-10-02T00:27:49.916Z,1.04
2022-10-02T00:28:49.945Z,1.04
2022-10-02T00:29:50.492Z,1.04
2022-10-02T00:30:50.265Z,1.04
2022-10-02T00:31:50.417Z,1.04
2022-10-02T00:32:50.467Z,1.04
2022-10-02T00:33:50.600Z,1.04
2022-10-02T00:34:50.705Z,1.04
2022-10-02T00:35:50.803Z,1.04
2022-10-02T00:36:50.908Z,1.04
2022-10-02T00:37:51.065Z,1.04
2022-10-02T00:38:51.217Z,1.04
2022-10-02T00:39:51.317Z,1.04
2022-10-02T00:40:51.418Z,1.04
2022-10-02T00:41:51.510Z,1.04
2022-10-02T00:42:51.727Z,1.04
2022-10-02T00:43:51.810Z,1.04
2022-10-02T00:44:52.474Z,1.04
2022-10-02T00:45:52.197Z,1.04
2022-10-02T00:46:52.281Z,1.04
2022-10-02T00:47:52.377Z,1.04
2022-10-02T00:48:52.532Z,1.04
2022-10-02T00:49:52.631Z,1.04
2022-10-02T00:50:52.744Z,1.04
2022-10-02T00:51:52.888Z,1.04
2022-10-02T00:52:52.993Z,1.04
2022-10-02T00:53:53.083Z,1.04
2022-10-02T00:54:53.237Z,1.04
2022-10-02T00:55:53.343Z,1.04
2022-10-02T00:56:53.497Z,1.04
2022-10-02T00:57:53.660Z,1.04
2022-10-02T00:58:53.801Z,1.04
2022-10-02T00:59:54.361Z,1.04
2022-10-02T01:00:54.138Z,1.04
2022-10-02T01:01:54.261Z,1.04
2022-10-02T01:02:54.297Z,1.04
2022-10-02T01:03:54.413Z,1.04
2022-10-02T01:04:54.558Z,1.04
2022-10-02T01:05:54.654Z,1.04
2022-10-02T01:06:54.759Z,1.04
2022-10-02T01:07:54.911Z,1.04
2022-10-02T01:08:55.066Z,1.04
2022-10-02T01:09:55.215Z,1.04
2022-10-02T01:10:55.376Z,1.04
2022-10-02T01:11:55.472Z,1.04
2022-10-02T01:12:55.565Z,1.04
2022-10-02T01:13:55.667Z,1.04
2022-10-02T01:14:56.257Z,1.04
2022-10-02T01:15:55.935Z,1.04
2022-10-02T01:16:56.109Z,1.04
2022-10-02T01:17:56.232Z,1.04
2022-10-02T01:18:56.339Z,1.04
2022-10-02T01:19:56.436Z,1.04
2022-10-02T01:20:56.536Z,1.04
2022-10-02T01:21:56.633Z,1.04
2022-10-02T01:22:56.736Z,1.04
2022-10-02T01:23:56.836Z,1.04
2022-10-02T01:24:56.939Z,1.04
2022-10-02T01:25:57.041Z,1.04
2022-10-02T01:26:57.191Z,1.04
2022-10-02T01:27:57.371Z,1.04
2022-10-02T01:28:57.501Z,1.04
2022-10-02T01:29:58.126Z,1.04
2022-10-02T01:30:57.799Z,1.04
2022-10-02T01:31:57.957Z,1.04
2022-10-02T01:32:58.010Z,1.04
2022-10-02T01:33:58.106Z,1.04
2022-10-02T01:34:58.209Z,1.04
2022-10-02T01:35:58.311Z,1.04
2022-10-02T01:36:58.411Z,1.04
2022-10-02T01:37:58.567Z,1.04
2022-10-02T01:38:58.721Z,1.04
2022-10-02T01:39:58.870Z,1.04
2022-10-02T01:40:58.971Z,1.04
2022-10-02T01:41:59.116Z,1.04
2022-10-02T01:42:59.219Z,1.04
2022-10-02T01:43:59.323Z,1.04
2022-10-02T01:44:59.817Z,1.04
2022-10-02T01:45:59.632Z,1.04
2022-10-02T01:46:59.676Z,1.04
2022-10-02T01:47:59.775Z,1.04
2022-10-02T01:48:59.880Z,1.04
2022-10-02T01:50:00.011Z,1.04
2022-10-02T01:51:00.137Z,1.04
2022-10-02T01:52:00.267Z,1.04
2022-10-02T01:53:00.383Z,1.04
2022-10-02T01:54:00.492Z,1.04
2022-10-02T01:55:00.600Z,1.04
2022-10-02T01:56:00.745Z,1.04
2022-10-02T01:57:00.844Z,1.04
2022-10-02T01:58:01.011Z,1.04
2022-10-02T01:59:01.156Z,1.04
2022-10-02T02:00:01.685Z,1.04
2022-10-02T02:01:01.454Z,1.04
2022-10-02T02:02:01.529Z,1.04
2022-10-02T02:03:01.608Z,1.04
2022-10-02T02:04:01.710Z,1.04
2022-10-02T02:05:01.858Z,1.04
2022-10-02T02:06:02.012Z,1.04
2022-10-02T02:07:02.113Z,1.04
2022-10-02T02:08:02.212Z,1.04
2022-10-02T02:09:02.318Z,1.04
2022-10-02T02:10:02.422Z,1.04
2022-10-02T02:11:02.515Z,1.04
2022-10-02T02:12:03.169Z,1.04
2022-10-02T02:13:02.769Z,1.04
2022-10-02T02:14:02.922Z,1.04
2022-10-02T02:15:03.455Z,1.04
2022-10-02T02:16:03.312Z,1.04
2022-10-02T02:17:03.332Z,1.04
2022-10-02T02:18:03.489Z,1.04
2022-10-02T02:19:04.120Z,1.04
2022-10-02T02:20:03.784Z,1.04
2022-10-02T02:21:03.942Z,1.04
2022-10-02T02:22:04.045Z,1.04
2022-10-02T02:23:04.175Z,1.04
2022-10-02T02:24:04.318Z,1.04
2022-10-02T02:25:04.445Z,1.04
2022-10-02T02:26:04.591Z,1.04
2022-10-02T02:27:04.691Z,1.04
2022-10-02T02:28:04.833Z,1.04
2022-10-02T02:29:04.900Z,1.04
2022-10-02T02:30:05.663Z,1.04
2022-10-02T02:31:05.157Z,1.04
2022-10-02T02:32:05.254Z,1.04
2022-10-02T02:33:05.353Z,1.04
2022-10-02T02:34:05.459Z,1.04
2022-10-02T02:35:05.573Z,1.04
2022-10-02T02:36:05.658Z,1.04
2022-10-02T02:37:05.759Z,1.04
2022-10-02T02:38:05.861Z,1.04
2022-10-02T02:39:05.969Z,1.04
2022-10-02T02:40:06.132Z,1.04
2022-10-02T02:41:06.226Z,1.04
2022-10-02T02:42:06.377Z,1.04
2022-10-02T02:43:06.523Z,1.04
2022-10-02T02:44:06.623Z,1.04
2022-10-02T02:45:07.205Z,1.04
2022-10-02T02:46:06.920Z,1.04
2022-10-02T02:47:07.043Z,1.04
2022-10-02T02:48:07.084Z,1.04
2022-10-02T02:49:07.234Z,1.04
2022-10-02T02:50:07.380Z,1.04
2022-10-02T02:51:07.491Z,1.04
2022-10-02T02:52:07.602Z,1.04
2022-10-02T02:53:07.746Z,1.04
2022-10-02T02:54:07.886Z,1.04
2022-10-02T02:55:08.044Z,1.04
2022-10-02T02:56:08.152Z,1.04
2022-10-02T02:57:08.304Z,1.04
2022-10-02T02:58:08.481Z,1.04
2022-10-02T02:59:09.091Z,1.04
2022-10-02T03:00:09.081Z,1.04
2022-10-02T03:01:08.992Z,1.04
2022-10-02T03:02:09.090Z,1.04
2022-10-02T03:03:09.144Z,1.04
2022-10-02T03:04:09.367Z,1.04
2022-10-02T03:05:09.443Z,1.04
2022-10-02T03:06:10.243Z,1.04
2022-10-02T03:07:09.766Z,1.04
2022-10-02T03:08:09.920Z,1.04
2022-10-02T03:09:10.020Z,1.04
2022-10-02T03:10:10.134Z,1.04
2022-10-02T03:11:10.215Z,1.04
2022-10-02T03:12:10.323Z,1.04
2022-10-02T03:13:10.417Z,1.04
2022-10-02T03:14:10.521Z,1.04
2022-10-02T03:15:11.068Z,1.04
2022-10-02T03:16:10.850Z,1.04
2022-10-02T03:17:10.926Z,1.04
2022-10-02T03:18:11.083Z,1.04
2022-10-02T03:19:11.183Z,1.04
2022-10-02T03:20:11.332Z,1.04
2022-10-02T03:21:11.431Z,1.04
2022-10-02T03:22:11.582Z,1.04
2022-10-02T03:23:11.734Z,1.04
2022-10-02T03:24:11.848Z,1.04
2022-10-02T03:25:11.942Z,1.04
2022-10-02T03:26:12.092Z,1.04
2022-10-02T03:27:12.193Z,1.04
2022-10-02T03:28:12.398Z,1.04
2022-10-02T03:29:12.509Z,1.04
2022-10-02T03:30:13.023Z,1.04
2022-10-02T03:31:12.819Z,1.04
2022-10-02T03:32:12.858Z,1.04
2022-10-02T03:33:13.004Z,1.04
2022-10-02T03:34:13.107Z,1.04
2022-10-02T03:35:13.338Z,1.04
2022-10-02T03:36:13.417Z,1.04
2022-10-02T03:37:13.565Z,1.04
2022-10-02T03:38:13.670Z,1.04
2022-10-02T03:39:24.520Z,1.04
2022-10-02T03:40:13.871Z,1.04
2022-10-02T03:41:14.020Z,1.04
2022-10-02T03:42:14.129Z,1.04
2022-10-02T03:43:14.267Z,1.04
2022-10-02T03:44:14.435Z,1.04
2022-10-02T03:45:27.411Z,1.04
2022-10-02T03:46:14.739Z,1.04
2022-10-02T03:47:14.836Z,1.04
2022-10-02T03:48:14.924Z,1.04
2022-10-02T03:49:15.048Z,1.04
2022-10-02T03:50:15.178Z,1.04
2022-10-02T03:51:15.766Z,1.04
2022-10-02T03:52:15.425Z,1.04
2022-10-02T03:53:15.598Z,1.04
2022-10-02T03:54:15.675Z,1.04
2022-10-02T03:55:15.928Z,1.04
2022-10-02T03:56:15.948Z,1.04
2022-10-02T03:57:16.165Z,1.04
2022-10-02T03:58:16.231Z,1.04
2022-10-02T03:59:16.400Z,1.04
2022-10-02T04:00:16.442Z,1.04
2022-10-02T04:01:17.235Z,1.04
2022-10-02T04:02:16.713Z,1.04
2022-10-02T04:03:16.948Z,1.04
2022-10-02T04:04:17.010Z,1.04
2022-10-02T04:05:17.162Z,1.04
2022-10-02T04:06:17.261Z,1.04
2022-10-02T04:07:17.368Z,1.04
2022-10-02T04:08:17.461Z,1.04
2022-10-02T04:09:17.671Z,1.04
2022-10-02T04:10:17.714Z,1.04
2022-10-02T04:11:17.866Z,1.04
2022-10-02T04:12:17.971Z,1.04
2022-10-02T04:13:18.124Z,1.04
2022-10-02T04:14:18.289Z,1.04
2022-10-02T04:15:18.862Z,1.04
2022-10-02T04:16:18.716Z,1.04
2022-10-02T04:17:18.631Z,1.04
2022-10-02T04:18:18.732Z,1.04
2022-10-02T04:19:18.835Z,1.04
2022-10-02T04:20:18.991Z,1.04
2022-10-02T04:21:19.081Z,1.04
2022-10-02T04:22:19.237Z,1.04
2022-10-02T04:23:19.389Z,1.04
2022-10-02T04:24:19.492Z,1.04
2022-10-02T04:25:19.595Z,1.04
2022-10-02T04:26:19.749Z,1.04
2022-10-02T04:27:19.842Z,1.04
2022-10-02T04:28:20.066Z,1.04
2022-10-02T04:29:20.151Z,1.04
2022-10-02T04:30:20.723Z,2
2022-10-02T04:31:20.498Z,2
2022-10-02T04:32:20.548Z,2
2022-10-02T04:33:20.653Z,2
2022-10-02T04:34:20.782Z,2
2022-10-02T04:35:20.872Z,3.04
2022-10-02T04:36:21.019Z,3.04
2022-10-02T04:37:21.162Z,4
2022-10-02T04:38:21.310Z,4
2022-10-02T04:39:21.468Z,5.04
2022-10-02T04:40:21.619Z,6
2022-10-02T04:41:21.738Z,8
2022-10-02T04:42:21.820Z,9.04
2022-10-02T04:43:21.981Z,11.04
2022-10-02T04:44:22.123Z,13.04
2022-10-02T04:45:22.715Z,15.04
2022-10-02T04:46:22.379Z,19.04
2022-10-02T04:47:22.485Z,22
2022-10-02T04:48:22.636Z,27.04
2022-10-02T04:49:22.728Z,32
2022-10-02T04:50:22.838Z,39.04
2022-10-02T04:51:22.932Z,45.04
2022-10-02T04:52:23.088Z,52
2022-10-02T04:53:23.242Z,99.04
2022-10-02T04:54:23.399Z,114
2022-10-02T04:55:23.504Z,133.04
2022-10-02T04:56:23.600Z,149.04
2022-10-02T04:57:23.695Z,174.08
2022-10-02T04:58:23.795Z,197.12
2022-10-02T04:59:23.899Z,225.12
2022-10-02T05:00:24.452Z,251.04
2022-10-02T05:01:24.248Z,284
2022-10-02T05:02:24.340Z,314.08
2022-10-02T05:03:24.456Z,344
2022-10-02T05:04:24.565Z,388.16
2022-10-02T05:05:24.666Z,424
2022-10-02T05:06:24.762Z,471.04
2022-10-02T05:07:24.863Z,513.28
2022-10-02T05:08:24.967Z,554.24
2022-10-02T05:09:28.379Z,610.24
2022-10-02T05:10:25.215Z,657.28
2022-10-02T05:11:25.316Z,704
2022-10-02T05:12:25.424Z,769.28
2022-10-02T05:13:25.568Z,821.12
2022-10-02T05:14:25.730Z,894.08
2022-10-02T05:15:26.302Z,957.44
2022-10-02T05:16:26.110Z,1020.16
2022-10-02T05:17:26.087Z,1102.08
2022-10-02T05:18:26.175Z,1170.56
2022-10-02T05:19:26.328Z,1238.4
2022-10-02T05:20:26.435Z,1295.36
2022-10-02T05:21:26.583Z,1433.6
2022-10-02T05:22:26.735Z,1532.16
2022-10-02T05:23:26.834Z,1621.76
2022-10-02T05:24:26.995Z,1745.92
2022-10-02T05:25:27.143Z,1859.84
2022-10-02T05:26:27.246Z,1980.16
2022-10-02T05:27:27.352Z,2128.64
2022-10-02T05:28:27.511Z,2240
2022-10-02T05:29:27.545Z,2387.2
2022-10-02T05:30:28.061Z,2519.04
2022-10-02T05:31:27.858Z,2644.48
2022-10-02T05:32:27.903Z,2775.04
2022-10-02T05:33:28.010Z,2859.52
2022-10-02T05:34:28.105Z,2964.48
2022-10-02T05:35:28.270Z,3043.84
2022-10-02T05:36:28.427Z,3146.24
2022-10-02T05:37:28.520Z,3238.4
2022-10-02T05:38:28.621Z,3371.52
2022-10-02T05:39:28.715Z,3489.28
2022-10-02T05:40:28.821Z,3648
2022-10-02T05:41:28.926Z,3796.48
2022-10-02T05:42:29.022Z,3978.24
2022-10-02T05:43:29.177Z,4113.92
2022-10-02T05:44:29.288Z,4272.64
2022-10-02T05:45:29.902Z,4454.4
2022-10-02T05:46:29.594Z,4615.68
2022-10-02T05:47:29.636Z,4779.52
2022-10-02T05:48:29.729Z,4864
2022-10-02T05:49:29.829Z,4940.8
2022-10-02T05:50:29.933Z,5081.6
2022-10-02T05:51:30.086Z,5283.84
2022-10-02T05:52:30.192Z,5432.32
2022-10-02T05:53:30.285Z,5478.4
2022-10-02T05:54:30.397Z,5478.4
2022-10-02T05:55:30.495Z,5273.6
2022-10-02T05:56:30.641Z,5345.28
2022-10-02T05:57:30.743Z,5847.04
2022-10-02T05:58:30.909Z,6077.44
2022-10-02T05:59:31.050Z,6251.52
2022-10-02T06:00:31.544Z,6492.16
2022-10-02T06:01:31.349Z,6789.12
2022-10-02T06:02:33.425Z,7234.56
2022-10-02T06:03:31.508Z,8094.72
2022-10-02T06:04:31.655Z,9528.319
2022-10-02T06:05:31.759Z,12840.96
2022-10-02T06:06:31.921Z,19804.16
2022-10-02T06:07:32.065Z,24227.84
2022-10-02T06:08:32.166Z,25886.72
2022-10-02T06:09:32.316Z,25620.48
2022-10-02T06:10:32.468Z,25231.36
2022-10-02T06:11:32.569Z,22179.84
2022-10-02T06:12:32.737Z,13895.68
2022-10-02T06:13:32.874Z,13660.16
2022-10-02T06:14:32.974Z,17807.36
2022-10-02T06:15:33.626Z,18769.92
2022-10-02T06:16:33.418Z,31252.48
2022-10-02T06:17:33.388Z,29614.08
2022-10-02T06:18:33.494Z,32256
2022-10-02T06:19:33.649Z,32337.92
2022-10-02T06:20:34.117Z,28119.04
2022-10-02T06:21:33.837Z,30760.96
2022-10-02T06:22:33.998Z,28733.44
2022-10-02T06:23:34.084Z,19732.48
2022-10-02T06:24:34.193Z,16619.52
2022-10-02T06:25:34.291Z,27238.4
2022-10-02T06:26:34.714Z,19834.88
2022-10-02T06:27:34.554Z,25907.2
2022-10-02T06:28:34.644Z,33832.96
2022-10-02T06:29:34.798Z,36003.84
2022-10-02T06:30:35.380Z,35532.8
2022-10-02T06:31:35.144Z,35614.72
2022-10-02T06:32:35.250Z,36823.04
2022-10-02T06:33:35.412Z,36782.08
2022-10-02T06:34:35.510Z,37109.76
2022-10-02T06:35:35.656Z,37621.76
2022-10-02T06:36:36.024Z,38256.64
2022-10-02T06:37:35.966Z,38809.6
2022-10-02T06:38:36.066Z,39034.88
2022-10-02T06:39:36.160Z,39403.52
2022-10-02T06:40:36.314Z,39505.92
2022-10-02T06:41:36.431Z,40243.2
2022-10-02T06:42:36.517Z,40611.84
2022-10-02T06:43:36.627Z,41041.92
2022-10-02T06:44:36.723Z,41512.96
2022-10-02T06:45:37.644Z,42024.96
2022-10-02T06:46:37.259Z,42598.4
2022-10-02T06:47:37.131Z,43130.88
2022-10-02T06:48:37.250Z,43704.32
2022-10-02T06:49:37.391Z,43663.36
2022-10-02T06:50:37.535Z,43663.36
2022-10-02T06:51:37.635Z,43745.28
2022-10-02T06:52:38.374Z,43909.12
2022-10-02T06:53:37.838Z,43950.08
2022-10-02T06:54:37.954Z,44195.84
2022-10-02T06:55:38.087Z,43048.96
2022-10-02T06:56:38.453Z,43868.16
2022-10-02T06:57:38.353Z,44277.76
2022-10-02T06:58:38.455Z,44113.92
2022-10-02T06:59:38.606Z,43868.16
2022-10-02T07:00:39.243Z,43008
2022-10-02T07:01:39.115Z,43335.68
2022-10-02T07:02:39.000Z,44154.88
2022-10-02T07:03:39.152Z,44400.64
2022-10-02T07:04:39.259Z,46366.72
2022-10-02T07:05:39.356Z,46161.92
2022-10-02T07:06:39.894Z,45916.16
2022-10-02T07:07:39.601Z,46817.28
2022-10-02T07:08:40.393Z,46817.28
2022-10-02T07:09:39.921Z,49602.56
2022-10-02T07:10:40.023Z,51445.76
2022-10-02T07:11:40.113Z,44728.32
2022-10-02T07:12:40.218Z,35962.88
2022-10-02T07:13:40.324Z,41349.12
2022-10-02T07:14:40.420Z,38666.24
2022-10-02T07:15:41.062Z,31293.44
2022-10-02T07:16:41.012Z,25866.24
2022-10-02T07:17:40.783Z,35655.68
2022-10-02T07:18:40.912Z,51281.92
2022-10-02T07:19:41.034Z,42352.64
2022-10-02T07:20:41.138Z,50667.52
2022-10-02T07:21:41.356Z,51650.56
2022-10-02T07:22:45.541Z,51159.04
2022-10-02T07:23:41.537Z,52101.12
2022-10-02T07:24:41.709Z,51978.24
2022-10-02T07:25:41.885Z,51937.28
2022-10-02T07:26:41.952Z,51978.24
2022-10-02T07:27:42.081Z,52551.68
2022-10-02T07:28:42.216Z,52920.32
2022-10-02T07:29:42.737Z,53125.12
2022-10-02T07:30:42.451Z,53411.84
2022-10-02T07:31:42.598Z,53698.56
2022-10-02T07:32:42.723Z,53862.4
2022-10-02T07:33:42.855Z,54108.16
2022-10-02T07:34:42.961Z,54640.64
2022-10-02T07:35:43.061Z,54599.68
2022-10-02T07:36:43.246Z,54968.32
2022-10-02T07:37:43.369Z,55091.2
2022-10-02T07:38:43.599Z,55050.24
2022-10-02T07:39:43.551Z,54804.48
2022-10-02T07:40:43.724Z,55132.16
2022-10-02T07:41:43.757Z,55173.12
2022-10-02T07:42:44.502Z,55418.88
2022-10-02T07:43:44.074Z,55500.8
2022-10-02T07:44:44.590Z,55377.92
2022-10-02T07:45:44.340Z,55910.4
2022-10-02T07:46:44.430Z,55746.56
2022-10-02T07:47:44.577Z,55910.4
2022-10-02T07:48:44.691Z,56320
2022-10-02T07:49:44.838Z,56156.16
2022-10-02T07:50:44.937Z,56811.52
2022-10-02T07:51:45.041Z,52224
2022-10-02T07:52:45.142Z,57384.96
2022-10-02T07:53:45.245Z,57303.04
2022-10-02T07:54:45.349Z,57262.08
2022-10-02T07:55:45.440Z,57180.16
2022-10-02T07:56:45.558Z,57507.84
2022-10-02T07:57:45.694Z,58368
2022-10-02T07:58:45.865Z,57384.96
2022-10-02T07:59:51.337Z,56156.16
2022-10-02T08:00:46.136Z,59064.32
2022-10-02T08:01:46.364Z,41512.96
2022-10-02T08:02:46.423Z,59187.2
2022-10-02T08:03:46.550Z,29122.56
2022-10-02T08:04:46.738Z,58245.12
2022-10-02T08:05:46.858Z,58327.04
2022-10-02T08:06:46.968Z,59678.72
2022-10-02T08:07:47.066Z,59310.08
2022-10-02T08:08:47.165Z,59392
2022-10-02T08:09:47.267Z,59269.12
2022-10-02T08:10:47.370Z,59351.04
2022-10-02T08:11:49.577Z,59801.6
2022-10-02T08:12:47.668Z,60334.08
2022-10-02T08:13:47.768Z,60579.84
2022-10-02T08:14:48.519Z,61521.92
2022-10-02T08:15:48.023Z,63119.36
2022-10-02T08:16:48.238Z,65699.84
2022-10-02T08:17:48.295Z,69509.12
2022-10-02T08:18:48.386Z,23797.76
2022-10-02T08:19:48.530Z,25436.16
2022-10-02T08:20:48.638Z,49029.12
2022-10-02T08:21:48.734Z,34385.92
2022-10-02T08:22:48.899Z,61931.52
2022-10-02T08:23:49.039Z,61358.08
2022-10-02T08:24:49.214Z,62095.36
2022-10-02T08:25:49.340Z,64962.56
2022-10-02T08:26:49.447Z,67747.84
2022-10-02T08:27:49.675Z,71147.52
2022-10-02T08:28:49.755Z,73195.52
2022-10-02T08:29:50.406Z,74670.08
2022-10-02T08:30:50.014Z,59924.48
2022-10-02T08:31:50.144Z,52797.44
2022-10-02T08:32:50.209Z,56893.44
2022-10-02T08:33:50.313Z,36986.88
2022-10-02T08:34:50.417Z,33587.2
2022-10-02T08:35:50.513Z,31272.96
2022-10-02T08:36:50.668Z,27115.52
2022-10-02T08:37:51.032Z,24985.6
2022-10-02T08:38:54.556Z,22241.28
2022-10-02T08:39:51.019Z,21299.2
2022-10-02T08:40:51.110Z,20531.2
2022-10-02T08:41:51.266Z,19660.8
2022-10-02T08:42:51.422Z,18718.72
2022-10-02T08:43:51.574Z,18145.28
2022-10-02T08:44:52.108Z,17684.48
2022-10-02T08:45:51.809Z,17479.68
2022-10-02T08:46:51.925Z,17827.84
2022-10-02T08:47:52.036Z,18094.08
2022-10-02T08:48:52.179Z,18626.56
2022-10-02T08:49:52.280Z,19732.48
2022-10-02T08:50:52.438Z,21073.92
2022-10-02T08:51:52.590Z,21852.16
2022-10-02T08:52:52.682Z,21852.16
2022-10-02T08:53:52.804Z,69386.24
2022-10-02T08:54:52.940Z,66150.4
2022-10-02T08:55:53.093Z,62177.28
2022-10-02T08:56:53.200Z,60866.56
2022-10-02T08:57:53.357Z,61972.48
2022-10-02T08:58:53.450Z,65167.36
2022-10-02T08:59:54.014Z,65003.52
2022-10-02T09:00:53.824Z,68116.48
2022-10-02T09:01:57.583Z,65495.04
2022-10-02T09:02:54.010Z,65454.08
2022-10-02T09:03:54.118Z,71843.84
2022-10-02T09:04:54.215Z,30044.16
2022-10-02T09:05:54.308Z,27832.32
2022-10-02T09:06:54.409Z,26214.4
2022-10-02T09:07:54.506Z,30515.2
2022-10-02T09:08:54.664Z,40345.6
2022-10-02T09:09:54.770Z,22282.24
2022-10-02T09:10:54.912Z,40181.76
2022-10-02T09:11:55.064Z,26071.04
2022-10-02T09:12:55.220Z,52224
2022-10-02T09:13:55.318Z,28876.8
2022-10-02T09:14:58.714Z,32665.6
2022-10-02T09:15:55.593Z,26296.32
2022-10-02T09:16:55.832Z,57057.28
2022-10-02T09:17:55.884Z,30597.12
2022-10-02T09:18:55.977Z,27279.36
2022-10-02T09:19:56.129Z,38359.04
2022-10-02T09:20:56.232Z,24350.72
2022-10-02T09:21:56.450Z,45096.96
2022-10-02T09:22:56.543Z,36474.88
2022-10-02T09:23:56.644Z,31641.6
2022-10-02T09:24:56.794Z,34488.32
2022-10-02T09:25:56.952Z,67665.92
2022-10-02T09:26:57.132Z,53248
2022-10-02T09:27:58.277Z,36474.88
2022-10-02T09:28:57.397Z,23859.2
2022-10-02T09:29:57.934Z,25047.04
2022-10-02T09:30:57.705Z,25497.6
2022-10-02T09:31:57.837Z,29900.8
2022-10-02T09:32:57.915Z,22917.12
2022-10-02T09:33:58.004Z,20019.2
2022-10-02T09:34:58.166Z,18831.36
2022-10-02T09:35:58.292Z,17664
2022-10-02T09:36:58.397Z,25681.92
2022-10-02T09:37:58.455Z,24883.2
2022-10-02T09:38:58.613Z,21975.04
2022-10-02T09:39:58.776Z,19456
2022-10-02T09:40:58.873Z,16281.6
2022-10-02T09:41:58.977Z,14663.68
2022-10-02T09:42:59.072Z,14837.76
2022-10-02T09:43:59.222Z,14653.439
2022-10-02T09:45:01.648Z,15708.159
2022-10-02T09:45:59.588Z,15851.52
2022-10-02T09:46:59.688Z,14755.84
2022-10-02T09:47:59.782Z,14305.279
2022-10-02T09:48:59.926Z,12472.319
2022-10-02T09:50:00.032Z,10629.12
2022-10-02T09:51:00.186Z,11407.359
2022-10-02T09:52:00.288Z,17448.96
2022-10-02T09:53:00.387Z,21401.6
2022-10-02T09:54:00.486Z,22528
2022-10-02T09:55:00.604Z,21872.64
2022-10-02T09:56:00.706Z,20817.92
2022-10-02T09:57:00.815Z,16629.76
2022-10-02T09:58:00.898Z,11458.56
2022-10-02T09:59:01.004Z,7925.76
2022-10-02T10:00:01.561Z,7915.52
2022-10-02T10:01:01.276Z,8601.6
2022-10-02T10:02:01.431Z,8842.24
2022-10-02T10:03:01.457Z,10209.279
2022-10-02T10:04:01.565Z,11397.12
2022-10-02T10:05:05.882Z,11202.56
2022-10-02T10:06:01.810Z,9978.88
2022-10-02T10:07:01.908Z,8033.28
2022-10-02T10:08:02.026Z,7429.12
2022-10-02T10:09:02.123Z,8268.8
2022-10-02T10:10:02.213Z,7162.88
2022-10-02T10:11:02.397Z,5135.36
2022-10-02T10:12:02.469Z,5125.12
2022-10-02T10:13:02.570Z,5985.28
2022-10-02T10:14:02.717Z,5908.48
2022-10-02T10:15:06.317Z,7449.6
2022-10-02T10:16:03.057Z,12523.52
2022-10-02T10:17:03.137Z,15554.56
2022-10-02T10:18:03.287Z,15032.319
2022-10-02T10:19:03.379Z,11202.56
2022-10-02T10:20:03.530Z,9088
2022-10-02T10:21:03.688Z,8652.8
2022-10-02T10:22:03.788Z,8432.64
2022-10-02T10:23:03.939Z,7060.48
2022-10-02T10:24:04.107Z,5939.2
2022-10-02T10:25:04.143Z,5913.6
2022-10-02T10:26:04.241Z,5565.44
2022-10-02T10:27:07.370Z,5555.2
2022-10-02T10:28:06.072Z,6118.4
2022-10-02T10:29:04.603Z,6548.48
2022-10-02T10:30:05.175Z,6435.84
2022-10-02T10:31:04.935Z,5376
2022-10-02T10:32:05.123Z,5224.96
2022-10-02T10:33:05.151Z,6128.64
2022-10-02T10:34:05.253Z,7567.36
2022-10-02T10:35:05.402Z,9052.16
2022-10-02T10:36:05.573Z,8166.4
2022-10-02T10:37:05.675Z,7137.28
2022-10-02T10:38:05.815Z,6231.04
2022-10-02T10:39:05.920Z,5806.08
2022-10-02T10:40:06.019Z,4787.2
2022-10-02T10:41:06.116Z,4119.04
2022-10-02T10:42:06.273Z,5235.2
2022-10-02T10:43:08.150Z,5606.4
2022-10-02T10:44:06.573Z,5020.16
2022-10-02T10:45:07.050Z,4631.04
2022-10-02T10:46:06.974Z,5821.44
2022-10-02T10:47:06.929Z,5611.52
2022-10-02T10:48:07.029Z,4933.12
2022-10-02T10:49:07.179Z,4323.84
2022-10-02T10:50:07.287Z,3356.16
2022-10-02T10:51:07.380Z,2120.96
2022-10-02T10:52:07.496Z,1559.04
2022-10-02T10:53:07.597Z,1820.16
2022-10-02T10:54:07.692Z,2398.72
2022-10-02T10:55:07.788Z,3274.24
2022-10-02T10:56:07.933Z,3673.6
2022-10-02T10:57:08.102Z,3847.68
2022-10-02T10:58:08.201Z,4008.96
2022-10-02T10:59:08.347Z,4759.04
2022-10-02T11:00:08.887Z,5365.76
2022-10-02T11:01:08.640Z,5007.36
2022-10-02T11:02:08.847Z,4380.16
2022-10-02T11:03:08.868Z,3906.56
2022-10-02T11:04:09.004Z,3609.6
2022-10-02T11:05:09.157Z,3525.12
2022-10-02T11:06:09.263Z,3456
2022-10-02T11:07:09.360Z,3374.08
2022-10-02T11:08:09.515Z,3164.16
2022-10-02T11:09:09.614Z,3051.52
2022-10-02T11:10:09.716Z,3125.76
2022-10-02T11:11:09.863Z,3345.92
2022-10-02T11:12:09.974Z,3453.44
2022-10-02T11:13:10.068Z,3747.84
2022-10-02T11:14:10.234Z,4047.36
2022-10-02T11:15:10.859Z,4569.6
2022-10-02T11:16:10.523Z,5056
2022-10-02T11:17:10.617Z,6154.24
2022-10-02T11:18:11.265Z,7296
2022-10-02T11:19:10.931Z,8750.08
2022-10-02T11:20:11.088Z,9794.56
2022-10-02T11:21:11.256Z,10480.64
2022-10-02T11:22:11.395Z,10536.96
2022-10-02T11:23:11.534Z,10050.56
2022-10-02T11:24:11.693Z,8550.399
2022-10-02T11:25:13.070Z,6963.2
2022-10-02T11:26:11.893Z,5800.96
2022-10-02T11:27:12.047Z,5199.36
2022-10-02T11:28:12.207Z,4577.28
2022-10-02T11:29:12.297Z,4426.24
2022-10-02T11:30:12.825Z,4643.84
2022-10-02T11:31:12.581Z,5253.12
2022-10-02T11:32:12.645Z,5744.64
2022-10-02T11:33:12.804Z,5882.88
2022-10-02T11:34:12.966Z,5888
2022-10-02T11:35:13.116Z,5852.16
2022-10-02T11:36:13.258Z,5754.88
2022-10-02T11:37:13.360Z,5708.8
2022-10-02T11:38:13.466Z,5775.36
2022-10-02T11:39:13.572Z,6563.84
2022-10-02T11:40:13.671Z,8012.8
2022-10-02T11:41:13.814Z,9205.76
2022-10-02T11:42:13.918Z,9830.399
2022-10-02T11:43:14.021Z,11079.68
2022-10-02T11:44:14.171Z,12595.2
2022-10-02T11:45:14.703Z,12666.88
2022-10-02T11:46:14.553Z,12963.84
2022-10-02T11:47:14.518Z,13690.88
2022-10-02T11:48:14.715Z,13414.399
2022-10-02T11:49:14.826Z,12933.12
2022-10-02T11:50:14.964Z,11427.84
2022-10-02T11:51:15.074Z,9292.8
2022-10-02T11:52:15.719Z,8309.76
2022-10-02T11:53:15.393Z,7623.68
2022-10-02T11:54:15.550Z,6743.04
2022-10-02T11:55:15.650Z,5580.8
2022-10-02T11:56:15.787Z,5189.12
2022-10-02T11:57:15.939Z,5053.44
2022-10-02T11:58:16.091Z,5048.32
2022-10-02T11:59:16.208Z,6123.52
2022-10-02T12:00:16.779Z,8007.68
2022-10-02T12:01:16.449Z,10152.96
2022-10-02T12:02:16.904Z,13598.72
2022-10-02T12:03:16.829Z,16220.159
2022-10-02T12:04:16.803Z,17459.2
2022-10-02T12:05:16.959Z,17879.04
2022-10-02T12:06:17.062Z,17786.88
2022-10-02T12:07:17.158Z,16640
2022-10-02T12:08:17.257Z,16404.48
2022-10-02T12:09:17.370Z,16711.68
2022-10-02T12:10:17.477Z,16732.16
2022-10-02T12:11:17.615Z,16998.4
2022-10-02T12:12:17.716Z,17141.76
2022-10-02T12:13:17.817Z,17766.4
2022-10-02T12:14:17.976Z,18647.04
2022-10-02T12:15:18.554Z,18984.96
2022-10-02T12:16:18.348Z,19210.24
2022-10-02T12:17:18.438Z,19640.32
2022-10-02T12:18:21.758Z,19496.96
2022-10-02T12:19:18.687Z,19271.68
2022-10-02T12:20:18.853Z,19445.76
2022-10-02T12:21:18.984Z,19978.24
2022-10-02T12:22:19.088Z,19855.36
2022-10-02T12:23:19.182Z,18657.28
2022-10-02T12:24:19.335Z,17459.2
2022-10-02T12:25:19.439Z,16977.92
2022-10-02T12:26:19.541Z,17438.72
2022-10-02T12:27:19.691Z,17868.8
2022-10-02T12:28:19.853Z,17356.8
2022-10-02T12:29:19.905Z,17981.44
2022-10-02T12:30:20.407Z,18042.88
2022-10-02T12:31:20.206Z,18821.12